Time;durP1;ratioP1;P1;durP2;ratioP2;P2;SDS_P1;SDS_P2;PMS_P1;PMS_P2;Temp;Humidity;BMP_temperature;BMP_pressure;BME280_temperature;BME280_humidity;BME280_pressure;Samples;Min_cycle;Max_cycle;Signal;HPM_P1;HPM_P2
2022/06/28 00:00:21;;;;;;;15.50;7.85;;;14.20;90.60;;;;;;5053175;28;20368;-50
2022/06/28 00:02:46;;;;;;;10.75;7.57;;;14.20;90.70;;;;;;5051888;28;20021;-50
2022/06/28 00:05:12;;;;;;;10.25;7.28;;;14.20;90.70;;;;;;5053476;28;20029;-49
2022/06/28 00:07:38;;;;;;;8.68;7.35;;;14.30;90.40;;;;;;5051873;28;20021;-55
2022/06/28 00:10:05;;;;;;;9.52;7.45;;;14.20;90.30;;;;;;5053479;28;20154;-50
2022/06/28 00:12:31;;;;;;;11.25;7.38;;;14.20;90.20;;;;;;5053405;28;20021;-50
2022/06/28 00:17:42;;;;;;;9.93;6.47;;;14.00;90.40;;;;;;5053332;28;20120;-51
2022/06/28 00:20:09;;;;;;;10.60;7.28;;;14.10;90.60;;;;;;5052495;28;20444;-50
2022/06/28 00:22:34;;;;;;;11.10;7.55;;;14.00;90.60;;;;;;5052818;28;20022;-49
2022/06/28 00:25:00;;;;;;;12.77;7.10;;;14.00;90.60;;;;;;5052987;28;20028;-49
2022/06/28 00:27:26;;;;;;;16.92;8.07;;;14.00;90.70;;;;;;5052693;28;20047;-48
2022/06/28 00:29:52;;;;;;;9.65;7.05;;;14.00;90.80;;;;;;5052604;28;20025;-48
2022/06/28 00:32:17;;;;;;;8.98;7.05;;;14.00;90.80;;;;;;5052348;28;20029;-52
2022/06/28 00:34:43;;;;;;;9.45;7.45;;;13.90;90.90;;;;;;5052573;28;20185;-49
2022/06/28 00:37:09;;;;;;;12.30;7.82;;;14.00;90.90;;;;;;5052773;28;20056;-50
2022/06/28 00:39:34;;;;;;;9.50;7.70;;;13.90;90.80;;;;;;5052820;28;20029;-49
2022/06/28 00:42:00;;;;;;;12.15;7.55;;;13.90;90.70;;;;;;5052737;28;20017;-50
2022/06/28 00:44:27;;;;;;;10.25;7.95;;;13.80;90.90;;;;;;5053241;28;20068;-51
2022/06/28 00:46:53;;;;;;;12.15;7.60;;;13.80;90.90;;;;;;5052789;28;20025;-49
2022/06/28 00:49:19;;;;;;;9.52;6.55;;;13.70;91.00;;;;;;5052958;28;20025;-48
2022/06/28 00:51:45;;;;;;;10.43;6.75;;;13.70;91.10;;;;;;5051612;28;20033;-48
2022/06/28 00:54:11;;;;;;;9.27;6.97;;;13.60;91.20;;;;;;5052538;28;20029;-55
2022/06/28 00:56:37;;;;;;;7.75;5.93;;;13.70;91.20;;;;;;5052848;28;20112;-49
2022/06/28 00:59:03;;;;;;;9.55;6.10;;;13.70;91.30;;;;;;5052702;28;20108;-49
2022/06/28 01:01:29;;;;;;;14.02;7.25;;;13.80;91.00;;;;;;5052701;28;20104;-50
2022/06/28 01:03:55;;;;;;;8.65;5.80;;;13.70;90.80;;;;;;5052307;28;20070;-48
2022/06/28 01:06:21;;;;;;;13.13;7.55;;;13.60;90.80;;;;;;5054808;28;20103;-48
2022/06/28 01:08:47;;;;;;;7.55;6.05;;;13.60;90.90;;;;;;5056025;28;20522;-48
2022/06/28 01:11:20;;;;;;;8.85;6.40;;;13.60;91.00;;;;;;5056489;28;20036;-51
2022/06/28 01:13:55;;;;;;;7.03;6.20;;;13.60;91.00;;;;;;5055256;28;20025;-49
2022/06/28 01:16:22;;;;;;;7.75;6.90;;;13.60;90.90;;;;;;5056070;28;20028;-50
2022/06/28 01:18:48;;;;;;;12.57;6.95;;;13.60;90.90;;;;;;5055759;28;20045;-50
2022/06/28 01:21:15;;;;;;;10.02;6.35;;;13.60;90.90;;;;;;5055924;28;20422;-50
2022/06/28 01:23:46;;;;;;;9.75;6.63;;;13.60;90.70;;;;;;5055774;28;20477;-50
2022/06/28 01:26:14;;;;;;;6.63;5.90;;;13.70;90.50;;;;;;5055984;28;20155;-50
2022/06/28 01:28:42;;;;;;;9.80;6.85;;;13.80;90.30;;;;;;5056103;28;20025;-49
2022/06/28 01:31:08;;;;;;;9.82;5.70;;;13.80;90.20;;;;;;5055758;28;20064;-49
2022/06/28 01:33:38;;;;;;;10.00;6.03;;;13.80;90.00;;;;;;5055553;28;20021;-49
2022/06/28 01:36:05;;;;;;;12.05;6.93;;;13.70;89.90;;;;;;5055758;28;20385;-49
2022/06/28 01:38:31;;;;;;;11.57;6.38;;;13.80;90.00;;;;;;5055749;28;20025;-51
2022/06/28 01:40:57;;;;;;;10.40;7.28;;;13.70;90.00;;;;;;5055601;28;20381;-49
2022/06/28 01:43:23;;;;;;;6.18;5.30;;;13.60;90.00;;;;;;5056247;28;20025;-50
2022/06/28 01:45:51;;;;;;;6.65;5.82;;;13.60;90.10;;;;;;5056124;28;20407;-50
2022/06/28 01:48:18;;;;;;;7.32;5.28;;;13.60;90.10;;;;;;5055537;28;20488;-48
2022/06/28 01:50:45;;;;;;;6.60;5.90;;;13.40;90.00;;;;;;5055921;28;20025;-49
2022/06/28 01:53:10;;;;;;;6.95;5.55;;;13.30;90.00;;;;;;5055703;28;20028;-48
2022/06/28 01:55:36;;;;;;;6.70;5.07;;;13.30;90.00;;;;;;5054104;28;20384;-51
2022/06/28 01:58:03;;;;;;;7.03;5.70;;;13.20;90.10;;;;;;5055427;28;20087;-50
2022/06/28 02:00:29;;;;;;;7.00;5.47;;;13.20;90.20;;;;;;5054422;28;20029;-50
2022/06/28 02:02:55;;;;;;;12.15;6.40;;;13.20;90.20;;;;;;5055589;28;20021;-48
2022/06/28 02:05:21;;;;;;;7.85;5.45;;;13.20;90.30;;;;;;5055620;28;20445;-48
2022/06/28 02:07:49;;;;;;;12.18;6.43;;;13.20;90.40;;;;;;5055287;28;20159;-49
2022/06/28 02:10:18;;;;;;;9.13;5.80;;;13.10;90.50;;;;;;5055364;28;20024;-48
2022/06/28 02:12:44;;;;;;;10.57;6.07;;;13.20;90.60;;;;;;5055250;28;20023;-49
2022/06/28 02:15:11;;;;;;;10.48;6.40;;;13.10;90.60;;;;;;5055110;28;20104;-48
2022/06/28 02:17:37;;;;;;;15.02;6.85;;;13.10;90.60;;;;;;5054974;28;20032;-51
2022/06/28 02:20:03;;;;;;;10.73;6.85;;;13.10;90.70;;;;;;5054941;28;20049;-49
2022/06/28 02:22:28;;;;;;;8.25;6.43;;;13.20;90.60;;;;;;5054994;28;20036;-48
2022/06/28 02:24:54;;;;;;;9.55;7.10;;;13.20;90.70;;;;;;5055119;28;20029;-48
2022/06/28 02:27:20;;;;;;;11.32;6.10;;;13.20;90.70;;;;;;5055147;28;20017;-48
2022/06/28 02:29:46;;;;;;;8.75;5.63;;;13.10;90.60;;;;;;5055091;28;20029;-48
2022/06/28 02:32:11;;;;;;;10.30;6.68;;;13.20;90.60;;;;;;5055183;28;20033;-50
2022/06/28 02:40:23;;;;;;;8.00;6.63;;;13.20;90.50;;;;;;5054505;28;20424;-48
2022/06/28 02:42:56;;;;;;;8.63;5.55;;;13.30;90.30;;;;;;5054763;28;20017;-49
2022/06/28 02:45:25;;;;;;;14.23;7.60;;;13.20;90.20;;;;;;5054516;28;20105;-49
2022/06/28 02:47:51;;;;;;;11.02;6.60;;;13.20;90.20;;;;;;5054856;28;20025;-48
2022/06/28 02:50:17;;;;;;;6.20;5.07;;;13.20;90.20;;;;;;5055082;28;20109;-49
2022/06/28 02:52:43;;;;;;;8.57;5.72;;;13.20;90.20;;;;;;5054566;28;20093;-50
2022/06/28 02:55:09;;;;;;;7.07;5.60;;;13.20;90.20;;;;;;5054312;28;20365;-53
2022/06/28 20:19:26;;;;;;;8.48;2.20;;;21.60;49.30;;;;;;5070667;28;20383;-37
2022/06/28 20:21:52;;;;;;;6.88;1.70;;;21.50;49.40;;;;;;5070504;28;20044;-37
2022/06/28 20:24:17;;;;;;;2.42;1.45;;;21.50;49.50;;;;;;5069706;28;20112;-37
2022/06/28 20:26:43;;;;;;;7.68;1.52;;;21.60;49.50;;;;;;5068291;28;20021;-37
2022/06/28 20:29:09;;;;;;;4.53;1.30;;;21.50;49.60;;;;;;5069477;28;20033;-37
2022/06/28 20:31:34;;;;;;;8.10;2.22;;;21.50;49.70;;;;;;5069039;28;20424;-37
2022/06/28 20:34:00;;;;;;;4.40;1.25;;;21.40;49.90;;;;;;5068320;28;20025;-37
2022/06/28 20:36:26;;;;;;;5.78;1.48;;;21.40;50.10;;;;;;5068325;28;20098;-37
2022/06/28 20:38:52;;;;;;;5.00;1.40;;;21.30;50.30;;;;;;5068204;28;20021;-38
2022/06/28 20:44:01;;;;;;;3.38;1.17;;;21.30;50.80;;;;;;5069868;28;20031;-38
2022/06/28 20:46:27;;;;;;;6.10;1.70;;;21.20;51.10;;;;;;5069662;28;20100;-38
2022/06/28 20:48:52;;;;;;;1.20;1.10;;;21.20;51.20;;;;;;5069685;28;20035;-38
2022/06/28 20:51:39;;;;;;;1.92;1.48;;;21.10;51.30;;;;;;5070323;28;20033;-38
2022/06/28 20:54:05;;;;;;;3.70;1.38;;;21.10;51.60;;;;;;5068289;28;20024;-37
2022/06/28 20:56:31;;;;;;;1.73;1.08;;;20.90;52.00;;;;;;5069372;28;20039;-37
2022/06/28 20:58:57;;;;;;;1.00;0.90;;;20.80;52.40;;;;;;5069386;28;20169;-50
2022/06/28 21:01:22;;;;;;;3.83;1.75;;;20.80;52.80;;;;;;5069978;28;20044;-48
2022/06/28 21:03:48;;;;;;;3.78;1.70;;;20.80;52.90;;;;;;5069696;28;20021;-48
2022/06/28 21:06:15;;;;;;;3.55;2.10;;;20.70;53.20;;;;;;5069578;28;20021;-38
2022/06/28 21:08:41;;;;;;;5.72;1.50;;;20.70;53.50;;;;;;5069466;28;20423;-38
2022/06/28 21:11:06;;;;;;;3.30;1.83;;;20.60;53.70;;;;;;5069348;28;20023;-38
2022/06/28 21:13:32;;;;;;;4.38;1.60;;;20.50;54.00;;;;;;5069471;28;20029;-43
2022/06/28 21:15:58;;;;;;;4.43;1.48;;;20.50;54.30;;;;;;5069405;28;20032;-38
2022/06/28 21:18:24;;;;;;;3.75;1.67;;;20.40;54.40;;;;;;5067812;28;20438;-37
2022/06/28 21:20:51;;;;;;;9.57;3.35;;;20.40;54.50;;;;;;5069260;28;20051;-41
2022/06/28 21:23:17;;;;;;;3.42;1.83;;;20.30;54.60;;;;;;5069255;28;20024;-38
2022/06/28 21:25:43;;;;;;;6.22;1.63;;;20.30;54.80;;;;;;5069431;28;20021;-38
2022/06/28 21:28:09;;;;;;;4.00;1.50;;;20.40;54.90;;;;;;5069843;28;20025;-39
2022/06/28 21:30:35;;;;;;;2.83;1.60;;;20.40;54.90;;;;;;5057465;28;20025;-37
2022/06/28 21:33:02;;;;;;;7.43;1.67;;;20.30;55.10;;;;;;5056149;28;20021;-39
2022/06/28 21:35:29;;;;;;;4.00;1.55;;;20.30;55.40;;;;;;5056135;28;20210;-38
2022/06/28 21:37:55;;;;;;;3.60;1.67;;;20.20;55.60;;;;;;5054553;28;20535;-38
2022/06/28 21:40:21;;;;;;;5.25;1.50;;;20.10;55.80;;;;;;5055672;28;20029;-37
2022/06/28 21:42:47;;;;;;;3.08;1.58;;;20.10;56.00;;;;;;5055866;28;20020;-37
2022/06/28 21:45:13;;;;;;;4.00;1.92;;;20.10;56.00;;;;;;5055949;28;20435;-37
2022/06/28 21:47:39;;;;;;;5.68;1.73;;;20.00;56.20;;;;;;5055894;28;20040;-37
2022/06/28 21:50:06;;;;;;;1.77;1.27;;;19.90;56.20;;;;;;5056088;28;20029;-37
2022/06/28 21:52:32;;;;;;;2.08;1.33;;;19.90;56.20;;;;;;5055818;28;20068;-38
2022/06/28 21:54:57;;;;;;;7.20;1.52;;;19.90;56.00;;;;;;5055568;28;20055;-38
2022/06/28 21:57:23;;;;;;;3.58;1.25;;;19.90;55.90;;;;;;5055681;28;20037;-38
2022/06/28 21:59:49;;;;;;;3.15;1.23;;;19.90;55.90;;;;;;5054147;28;20021;-37
2022/06/28 22:02:15;;;;;;;2.28;1.40;;;19.90;55.60;;;;;;5055073;28;20029;-38
2022/06/28 22:04:40;;;;;;;1.85;1.13;;;19.90;55.50;;;;;;5055617;28;20024;-38
2022/06/28 22:07:06;;;;;;;1.75;1.20;;;19.90;55.30;;;;;;5055640;28;20032;-38
2022/06/28 22:09:32;;;;;;;3.78;2.22;;;19.90;55.00;;;;;;5055024;28;20029;-37
2022/06/28 22:11:57;;;;;;;3.00;1.20;;;19.90;54.70;;;;;;5055595;28;20025;-38
2022/06/28 22:14:23;;;;;;;1.42;1.10;;;20.00;54.70;;;;;;5053971;28;20469;-37
2022/06/28 22:16:49;;;;;;;3.35;1.15;;;19.90;54.60;;;;;;5055485;28;20456;-37
2022/06/28 22:19:15;;;;;;;1.38;0.90;;;20.10;54.30;;;;;;5055024;28;20442;-38
2022/06/28 22:21:40;;;;;;;2.55;1.17;;;20.10;54.20;;;;;;5055423;28;20053;-38
2022/06/28 22:24:06;;;;;;;2.00;1.05;;;20.00;54.20;;;;;;5054708;28;20060;-37
2022/06/28 22:26:32;;;;;;;3.08;1.30;;;20.10;54.20;;;;;;5055162;28;20045;-37
2022/06/28 22:28:58;;;;;;;1.63;0.98;;;20.00;54.10;;;;;;5054949;28;20036;-37
2022/06/28 22:31:23;;;;;;;2.58;1.25;;;20.00;54.10;;;;;;5055475;28;20361;-37
2022/06/28 22:33:50;;;;;;;1.95;0.98;;;20.10;54.00;;;;;;5054406;28;20185;-39
2022/06/28 22:36:16;;;;;;;0.93;0.80;;;20.10;54.00;;;;;;5055172;28;20134;-38
2022/06/28 22:38:42;;;;;;;1.52;1.42;;;20.10;54.00;;;;;;5054722;28;20108;-38
2022/06/28 22:41:08;;;;;;;5.07;1.25;;;20.10;53.80;;;;;;5053727;28;20030;-40
2022/06/28 22:43:35;;;;;;;4.18;0.85;;;20.10;53.90;;;;;;5054898;28;20028;-40
2022/06/28 22:46:04;;;;;;;2.10;1.33;;;20.10;53.70;;;;;;5053646;28;20114;-37
2022/06/28 22:48:31;;;;;;;4.40;1.20;;;20.10;53.80;;;;;;5054871;28;20021;-37
2022/06/28 22:51:01;;;;;;;2.13;1.15;;;20.10;53.80;;;;;;5054955;28;20025;-39
2022/06/28 22:53:27;;;;;;;1.02;1.00;;;20.00;53.90;;;;;;5054549;28;20025;-38
2022/06/28 22:55:53;;;;;;;2.92;1.10;;;20.00;54.10;;;;;;5054419;28;20048;-39
2022/06/28 22:58:19;;;;;;;1.88;1.33;;;20.10;54.00;;;;;;5054645;28;20025;-36
2022/06/28 23:00:45;;;;;;;2.67;1.30;;;20.00;54.10;;;;;;5054770;28;20021;-37
2022/06/28 23:03:11;;;;;;;4.30;1.02;;;19.90;54.40;;;;;;5054245;28;20021;-38
2022/06/28 23:05:36;;;;;;;1.45;1.00;;;19.80;54.60;;;;;;5054053;28;20063;-37
2022/06/28 23:08:03;;;;;;;4.85;1.75;;;19.80;54.80;;;;;;5054328;28;20035;-36
2022/06/28 23:13:12;;;;;;;4.18;1.63;;;19.70;55.30;;;;;;5054816;28;20036;-37
2022/06/28 23:15:38;;;;;;;7.07;2.15;;;19.80;55.10;;;;;;5054232;28;20029;-38
2022/06/28 23:18:04;;;;;;;1.80;1.33;;;19.80;55.30;;;;;;5053695;28;20481;-38
2022/06/28 23:20:30;;;;;;;2.10;1.55;;;19.80;55.50;;;;;;5052702;28;20033;-37
2022/06/28 23:22:56;;;;;;;1.88;1.00;;;19.80;55.70;;;;;;5053923;28;20028;-37
2022/06/28 23:25:23;;;;;;;16.90;5.63;;;19.60;55.90;;;;;;5054056;28;20021;-37
2022/06/28 23:27:49;;;;;;;2.70;1.38;;;19.50;56.40;;;;;;5053824;28;20028;-41
2022/06/28 23:30:15;;;;;;;5.03;1.40;;;19.60;56.40;;;;;;5053770;28;20539;-38
2022/06/28 23:32:41;;;;;;;1.98;1.08;;;19.60;56.50;;;;;;5053471;28;20052;-37
2022/06/28 23:35:08;;;;;;;4.25;1.38;;;19.60;56.50;;;;;;5053574;28;20487;-37
2022/06/28 23:37:34;;;;;;;3.15;1.27;;;19.60;56.90;;;;;;5053483;28;20366;-37
2022/06/28 23:39:59;;;;;;;7.10;1.25;;;19.50;56.90;;;;;;5053142;28;20024;-38
2022/06/28 23:42:25;;;;;;;4.28;2.47;;;19.40;57.20;;;;;;5053283;28;20075;-39
2022/06/28 23:44:51;;;;;;;4.53;1.30;;;19.40;57.50;;;;;;5053344;28;20028;-37
2022/06/28 23:47:16;;;;;;;3.83;1.80;;;19.30;57.60;;;;;;5053430;28;20021;-38
2022/06/28 23:49:42;;;;;;;3.28;1.27;;;19.30;58.10;;;;;;5053082;28;20021;-37
2022/06/28 23:52:07;;;;;;;1.10;1.02;;;19.10;58.60;;;;;;5051548;28;20495;-38
2022/06/28 23:57:17;;;;;;;1.25;1.13;;;19.00;59.00;;;;;;5053029;28;20032;-37
2022/06/28 23:59:43;;;;;;;3.83;1.33;;;19.00;59.30;;;;;;5053073;28;20021;-37
